Terminal Aerodrome Forecast
Issued by NWS

Home | Current Version | Previous Version | Graphics & Text | Print | Product List | Glossary On
Versions: 1 2 3 4 5 6 7 8 9 10 11 12
000
FTUS45 KGGW 231720
TAFOLF
TAF
KOLF 231720Z 2318/2418 15007KT P6SM SKC
     FM240500 10009KT P6SM FEW150 WS020/17040KT
     FM241100 13006KT P6SM FEW180 WS020/20035KT
     FM241300 25007KT P6SM FEW110 WS020/23025KT
     FM241500 32012KT P6SM FEW110=

USA.gov is the U.S. government's official web portal to all federal, state and local government web resources and services.